Time;durP1;ratioP1;P1;durP2;ratioP2;P2;SDS_P1;SDS_P2;PMS_P1;PMS_P2;Temp;Humidity;BMP_temperature;BMP_pressure;BME280_temperature;BME280_humidity;BME280_pressure;Samples;Min_cycle;Max_cycle;Signal;HPM_P1;HPM_P2
2023/05/23 00:01:45;;;;;;;;;;;14.60;71.90;;;;;;4138753;28;20064;-86
2023/05/23 00:04:07;;;;;;;;;;;14.60;71.70;;;;;;4137451;28;19922;-87
2023/05/23 00:06:28;;;;;;;;;;;14.50;71.60;;;;;;4140698;28;20306;-86
2023/05/23 00:08:49;;;;;;;;;;;14.50;71.90;;;;;;4136701;28;20399;-89
2023/05/23 00:11:10;;;;;;;;;;;14.50;71.80;;;;;;4136165;28;19972;-88
2023/05/23 00:13:33;;;;;;;;;;;14.40;71.30;;;;;;4136333;28;20085;-88
2023/05/23 00:15:54;;;;;;;;;;;14.40;71.90;;;;;;4143081;28;20302;-87
2023/05/23 00:18:15;;;;;;;;;;;14.50;71.40;;;;;;4139167;28;19956;-88
2023/05/23 00:20:36;;;;;;;;;;;14.50;71.30;;;;;;4133915;28;19956;-88
2023/05/23 00:22:57;;;;;;;;;;;14.50;71.20;;;;;;4138595;28;19914;-88
2023/05/23 00:25:20;;;;;;;;;;;14.40;71.00;;;;;;4142373;28;20367;-88
2023/05/23 00:27:41;;;;;;;;;;;14.40;71.10;;;;;;4144050;28;20284;-89
2023/05/23 00:30:02;;;;;;;;;;;14.50;71.80;;;;;;4139792;28;19941;-87
2023/05/23 00:32:23;;;;;;;;;;;14.40;71.20;;;;;;4140938;28;19983;-88
2023/05/23 00:34:44;;;;;;;;;;;14.40;71.50;;;;;;4136227;28;20544;-88
2023/05/23 00:37:05;;;;;;;;;;;14.40;71.70;;;;;;4138533;28;19917;-87
2023/05/23 00:39:26;;;;;;;;;;;14.50;71.20;;;;;;4140149;28;19926;-86
2023/05/23 00:41:50;;;;;;;;;;;14.40;71.00;;;;;;4137617;28;19918;-90
2023/05/23 00:44:11;;;;;;;;;;;14.50;71.00;;;;;;4130310;28;19917;-87
2023/05/23 00:46:31;;;;;;;;;;;14.50;70.90;;;;;;4147573;28;19974;-89
2023/05/23 00:48:52;;;;;;;;;;;14.50;70.80;;;;;;4153938;28;19906;-87
2023/05/23 00:51:13;;;;;;;;;;;14.50;70.70;;;;;;4141055;28;19952;-87
2023/05/23 00:53:34;;;;;;;;;;;14.50;70.40;;;;;;4138746;28;19921;-86
2023/05/23 00:55:55;;;;;;;;;;;14.40;70.70;;;;;;4136944;28;19976;-85
2023/05/23 00:58:16;;;;;;;;;;;14.40;70.60;;;;;;4136992;28;20012;-85
2023/05/23 01:00:37;;;;;;;;;;;14.50;70.60;;;;;;4138655;28;20574;-85
2023/05/23 01:02:58;;;;;;;;;;;14.50;70.60;;;;;;4140129;28;19941;-86
2023/05/23 01:05:21;;;;;;;;;;;14.50;70.30;;;;;;4144940;28;20442;-86
2023/05/23 01:07:42;;;;;;;;;;;14.40;70.90;;;;;;4141221;28;19921;-86
2023/05/23 01:10:04;;;;;;;;;;;14.60;70.70;;;;;;4140439;28;19979;-86
2023/05/23 01:12:45;;;;;;;;;;;14.40;70.40;;;;;;4134691;28;19928;-87
2023/05/23 01:15:08;;;;;;;;;;;14.50;70.40;;;;;;4133402;28;20327;-86
2023/05/23 01:17:40;;;;;;;;;;;14.50;70.30;;;;;;4138689;28;20000;-86
2023/05/23 01:20:04;;;;;;;;;;;14.40;70.40;;;;;;4136096;28;20295;-88
2023/05/23 01:22:38;;;;;;;;;;;14.60;70.20;;;;;;4147627;28;19921;-89
2023/05/23 01:25:09;;;;;;;;;;;14.50;69.90;;;;;;4132149;28;19918;-88
2023/05/23 01:27:49;;;;;;;;;;;14.40;69.90;;;;;;4144884;28;20457;-86
2023/05/23 01:30:11;;;;;;;;;;;14.40;69.70;;;;;;4135147;28;19929;-89
2023/05/23 01:32:33;;;;;;;;;;;14.40;69.60;;;;;;4136312;28;19921;-87
2023/05/23 01:34:53;;;;;;;;;;;14.40;69.60;;;;;;4138859;28;19996;-87
2023/05/23 01:37:17;;;;;;;;;;;14.30;69.50;;;;;;4137745;28;19932;-85
2023/05/23 01:39:38;;;;;;;;;;;14.40;69.60;;;;;;4137788;28;20004;-88
2023/05/23 01:41:59;;;;;;;;;;;14.30;69.60;;;;;;4137569;28;19920;-87
2023/05/23 01:44:20;;;;;;;;;;;14.40;69.50;;;;;;4132846;28;21140;-87
2023/05/23 01:46:43;;;;;;;;;;;14.40;70.90;;;;;;4139103;28;19921;-86
2023/05/23 01:49:05;;;;;;;;;;;14.40;70.20;;;;;;4137081;28;20009;-86
2023/05/23 01:51:27;;;;;;;;;;;14.30;69.90;;;;;;4138003;28;19921;-90
2023/05/23 01:53:49;;;;;;;;;;;14.20;69.80;;;;;;4141815;28;19917;-87
2023/05/23 01:56:10;;;;;;;;;;;14.30;69.90;;;;;;4141253;28;20371;-86
2023/05/23 01:58:31;;;;;;;;;;;14.30;70.00;;;;;;4140795;28;19918;-89
2023/05/23 02:00:51;;;;;;;;;;;14.30;69.80;;;;;;4142918;28;19914;-85
2023/05/23 02:03:12;;;;;;;;;;;14.30;69.50;;;;;;4138708;28;19917;-88
2023/05/23 02:05:33;;;;;;;;;;;14.30;69.40;;;;;;4141656;28;20003;-88
2023/05/23 02:07:54;;;;;;;;;;;14.20;69.60;;;;;;4141542;28;19922;-88
2023/05/23 02:10:15;;;;;;;;;;;14.20;69.60;;;;;;4143127;28;19951;-88
2023/05/23 02:12:36;;;;;;;;;;;14.20;69.60;;;;;;4140849;28;20004;-87
2023/05/23 02:14:57;;;;;;;;;;;14.20;69.60;;;;;;4143731;28;19968;-87
2023/05/23 02:17:18;;;;;;;;;;;14.20;69.50;;;;;;4143138;28;19924;-88
2023/05/23 02:19:39;;;;;;;;;;;14.10;69.50;;;;;;4140512;28;19964;-87
2023/05/23 02:21:59;;;;;;;;;;;14.20;69.80;;;;;;4143765;28;20340;-87
2023/05/23 02:24:20;;;;;;;;;;;14.10;69.50;;;;;;4137404;28;19992;-88
2023/05/23 02:26:41;;;;;;;;;;;14.10;69.10;;;;;;4142731;28;19988;-87
2023/05/23 02:29:02;;;;;;;;;;;14.10;69.30;;;;;;4141448;28;19921;-87
2023/05/23 02:31:23;;;;;;;;;;;14.00;69.10;;;;;;4144717;28;19917;-88
2023/05/23 02:33:43;;;;;;;;;;;14.00;69.20;;;;;;4140853;28;19917;-87
2023/05/23 02:36:04;;;;;;;;;;;14.00;69.20;;;;;;4140094;28;19913;-88
2023/05/23 02:38:26;;;;;;;;;;;13.90;69.20;;;;;;4141849;28;19960;-87
2023/05/23 02:40:49;;;;;;;;;;;13.90;68.90;;;;;;4137891;28;19922;-88
2023/05/23 02:43:10;;;;;;;;;;;14.00;69.20;;;;;;4143128;28;19913;-88
2023/05/23 02:45:30;;;;;;;;;;;13.90;69.20;;;;;;4136794;28;19920;-87
2023/05/23 02:47:51;;;;;;;;;;;14.00;69.20;;;;;;4139099;28;20347;-87
2023/05/23 02:50:12;;;;;;;;;;;13.90;69.30;;;;;;4141922;28;19921;-86
2023/05/23 02:52:33;;;;;;;;;;;13.90;69.80;;;;;;4137793;28;19936;-88
2023/05/23 02:54:54;;;;;;;;;;;13.80;69.70;;;;;;4138220;28;20004;-90
2023/05/23 02:57:15;;;;;;;;;;;13.90;69.30;;;;;;4139977;28;19918;-88
2023/05/23 02:59:36;;;;;;;;;;;13.70;69.50;;;;;;4141834;28;20290;-88
2023/05/23 03:01:57;;;;;;;;;;;13.70;69.30;;;;;;4141432;28;19933;-88
2023/05/23 03:04:18;;;;;;;;;;;13.80;69.40;;;;;;4140096;28;19917;-88
2023/05/23 03:06:40;;;;;;;;;;;13.70;69.70;;;;;;4141582;28;19913;-88
2023/05/23 03:09:02;;;;;;;;;;;13.70;70.00;;;;;;4139258;28;19921;-88
2023/05/23 03:11:23;;;;;;;;;;;13.70;69.50;;;;;;4144792;28;19921;-90
2023/05/23 03:13:44;;;;;;;;;;;13.60;69.60;;;;;;4139688;28;19920;-86
2023/05/23 03:16:05;;;;;;;;;;;13.60;69.60;;;;;;4138010;28;19922;-87
2023/05/23 03:18:25;;;;;;;;;;;13.60;69.40;;;;;;4142226;28;19929;-87
2023/05/23 03:20:46;;;;;;;;;;;13.60;69.40;;;;;;4140395;28;19979;-87
2023/05/23 03:23:07;;;;;;;;;;;13.70;69.60;;;;;;4138617;28;19918;-87
2023/05/23 03:25:28;;;;;;;;;;;13.60;69.60;;;;;;4140162;28;19918;-87
2023/05/23 03:27:49;;;;;;;;;;;13.50;69.50;;;;;;4138502;28;19989;-87
2023/05/23 03:30:10;;;;;;;;;;;13.60;69.70;;;;;;4136555;28;19962;-87
2023/05/23 03:32:31;;;;;;;;;;;13.50;69.80;;;;;;4152136;28;19921;-90
2023/05/23 03:34:51;;;;;;;;;;;13.50;70.30;;;;;;4139806;28;19921;-86
2023/05/23 03:37:12;;;;;;;;;;;13.60;70.00;;;;;;4139723;28;19968;-88
2023/05/23 03:39:33;;;;;;;;;;;13.50;70.10;;;;;;4140962;28;19968;-87
2023/05/23 03:41:54;;;;;;;;;;;13.50;70.00;;;;;;4139289;28;19944;-86
2023/05/23 03:44:15;;;;;;;;;;;13.60;70.50;;;;;;4140379;28;19968;-87
2023/05/23 03:46:35;;;;;;;;;;;13.50;70.40;;;;;;4141875;28;19917;-87
2023/05/23 03:48:56;;;;;;;;;;;13.60;70.70;;;;;;4138492;28;19979;-87
2023/05/23 03:51:17;;;;;;;;;;;13.50;70.60;;;;;;4140727;28;19953;-90
2023/05/23 03:53:38;;;;;;;;;;;13.50;70.60;;;;;;4139383;28;19949;-87
2023/05/23 03:55:59;;;;;;;;;;;13.50;70.70;;;;;;4139397;28;20357;-90
2023/05/23 03:58:20;;;;;;;;;;;13.50;71.00;;;;;;4147480;28;19917;-87
2023/05/23 04:00:40;;;;;;;;;;;13.50;71.20;;;;;;4140692;28;20399;-86
2023/05/23 04:03:01;;;;;;;;;;;13.50;71.40;;;;;;4136447;28;19918;-86
2023/05/23 04:05:22;;;;;;;;;;;13.50;71.60;;;;;;4135771;28;19917;-87
2023/05/23 04:07:43;;;;;;;;;;;13.40;71.80;;;;;;4132992;28;19976;-86
2023/05/23 04:10:05;;;;;;;;;;;13.50;70.90;;;;;;4138326;28;19925;-86
2023/05/23 04:12:25;;;;;;;;;;;13.50;70.60;;;;;;4140763;28;20086;-86
2023/05/23 04:14:47;;;;;;;;;;;13.40;70.60;;;;;;4135153;28;19925;-86
2023/05/23 04:17:08;;;;;;;;;;;13.40;71.10;;;;;;4135438;28;20551;-86
2023/05/23 04:19:28;;;;;;;;;;;13.50;71.00;;;;;;4139272;28;19935;-86
2023/05/23 04:21:49;;;;;;;;;;;13.50;70.90;;;;;;4145202;28;19920;-88
2023/05/23 04:24:10;;;;;;;;;;;13.50;70.70;;;;;;4148367;28;19921;-87
2023/05/23 04:26:31;;;;;;;;;;;13.40;70.90;;;;;;4139131;28;19921;-88
2023/05/23 04:28:53;;;;;;;;;;;13.40;70.70;;;;;;4138269;28;20014;-87
2023/05/23 04:31:13;;;;;;;;;;;13.40;71.10;;;;;;4139353;28;19960;-86
2023/05/23 04:33:34;;;;;;;;;;;13.30;71.20;;;;;;4137472;28;20005;-87
2023/05/23 04:35:56;;;;;;;;;;;13.40;71.10;;;;;;4138509;28;19920;-87
2023/05/23 04:38:17;;;;;;;;;;;13.30;71.30;;;;;;4138945;28;20008;-87
2023/05/23 04:40:37;;;;;;;;;;;13.30;71.30;;;;;;4143187;28;20294;-85
2023/05/23 04:42:58;;;;;;;;;;;13.30;71.60;;;;;;4142330;28;20036;-85
2023/05/23 04:45:20;;;;;;;;;;;13.30;71.50;;;;;;4136547;28;19918;-87
2023/05/23 04:47:43;;;;;;;;;;;13.30;71.70;;;;;;4142833;28;19924;-87
2023/05/23 04:50:06;;;;;;;;;;;13.30;71.70;;;;;;4137629;28;23151;-87
2023/05/23 04:52:28;;;;;;;;;;;13.30;71.70;;;;;;4143841;28;20400;-85
2023/05/23 04:54:49;;;;;;;;;;;13.20;71.50;;;;;;4140740;28;19917;-87
2023/05/23 04:57:11;;;;;;;;;;;13.30;71.50;;;;;;4140255;28;19914;-87
2023/05/23 04:59:31;;;;;;;;;;;13.30;71.50;;;;;;4136998;28;19922;-87
2023/05/23 05:01:52;;;;;;;;;;;13.30;71.80;;;;;;4137844;28;19917;-88
2023/05/23 05:04:14;;;;;;;;;;;13.30;71.80;;;;;;4135615;28;20350;-88
2023/05/23 05:06:35;;;;;;;;;;;13.40;72.10;;;;;;4140995;28;19960;-86
2023/05/23 05:08:56;;;;;;;;;;;13.30;71.70;;;;;;4139820;28;20464;-86
2023/05/23 05:11:17;;;;;;;;;;;13.30;71.80;;;;;;4133448;28;19913;-87
2023/05/23 05:13:37;;;;;;;;;;;13.30;72.00;;;;;;4153436;28;19918;-88
2023/05/23 05:15:58;;;;;;;;;;;13.20;71.90;;;;;;4137525;28;19918;-86
2023/05/23 05:18:19;;;;;;;;;;;13.30;72.00;;;;;;4135587;28;19972;-88
2023/05/23 05:20:40;;;;;;;;;;;13.30;72.40;;;;;;4134634;28;19963;-87
2023/05/23 05:23:01;;;;;;;;;;;13.30;72.10;;;;;;4142289;28;19918;-86
2023/05/23 05:25:22;;;;;;;;;;;13.30;72.10;;;;;;4137660;28;19921;-87
2023/05/23 05:27:43;;;;;;;;;;;13.30;72.40;;;;;;4138303;28;19971;-87
2023/05/23 05:30:07;;;;;;;;;;;13.30;72.60;;;;;;4133180;28;20007;-87
2023/05/23 05:32:30;;;;;;;;;;;13.30;72.80;;;;;;4139929;28;19918;-85
2023/05/23 05:34:50;;;;;;;;;;;13.30;72.80;;;;;;4141096;28;19925;-87
2023/05/23 05:37:12;;;;;;;;;;;13.20;72.80;;;;;;4144384;28;19918;-87
2023/05/23 05:39:33;;;;;;;;;;;13.20;72.60;;;;;;4142369;28;19922;-88
2023/05/23 05:41:55;;;;;;;;;;;13.20;72.70;;;;;;4139884;28;19960;-87
2023/05/23 05:44:15;;;;;;;;;;;13.20;73.00;;;;;;4147310;28;19918;-90
2023/05/23 05:46:36;;;;;;;;;;;13.30;73.30;;;;;;4162421;28;19921;-91
2023/05/23 05:48:57;;;;;;;;;;;13.20;73.60;;;;;;4163814;28;19932;-92
2023/05/23 05:51:18;;;;;;;;;;;13.20;74.30;;;;;;4163525;28;19931;-93
2023/05/23 05:53:39;;;;;;;;;;;13.20;74.20;;;;;;4164502;28;19922;-91
2023/05/23 05:56:01;;;;;;;;;;;13.20;74.60;;;;;;4166392;28;19928;-89
2023/05/23 05:58:22;;;;;;;;;;;13.20;74.80;;;;;;4157575;28;19971;-87
2023/05/23 06:00:43;;;;;;;;;;;13.30;75.50;;;;;;4146555;28;19921;-90
2023/05/23 06:03:04;;;;;;;;;;;13.10;75.10;;;;;;4140040;28;19967;-90
2023/05/23 06:05:25;;;;;;;;;;;13.10;75.10;;;;;;4155270;28;19921;-90
2023/05/23 06:07:47;;;;;;;;;;;13.10;75.20;;;;;;4140574;28;19921;-89
2023/05/23 06:10:11;;;;;;;;;;;13.20;75.70;;;;;;4141769;28;19926;-88
2023/05/23 06:12:32;;;;;;;;;;;13.10;76.00;;;;;;4140641;28;19917;-85
2023/05/23 06:14:53;;;;;;;;;;;13.20;75.90;;;;;;4140135;28;19918;-88
2023/05/23 06:17:14;;;;;;;;;;;13.10;76.10;;;;;;4140309;28;19922;-88
2023/05/23 06:19:37;;;;;;;;;;;13.10;75.80;;;;;;4140635;28;20024;-86
2023/05/23 06:21:58;;;;;;;;;;;13.20;76.10;;;;;;4139424;28;19930;-87
2023/05/23 06:24:19;;;;;;;;;;;13.10;76.40;;;;;;4137101;28;19921;-86
2023/05/23 06:26:40;;;;;;;;;;;13.00;76.50;;;;;;4151543;28;19913;-88
2023/05/23 06:29:00;;;;;;;;;;;13.00;76.50;;;;;;4140321;28;20418;-88
2023/05/23 06:31:21;;;;;;;;;;;13.00;76.90;;;;;;4138706;28;20552;-87
2023/05/23 06:33:42;;;;;;;;;;;13.00;76.90;;;;;;4138905;28;20498;-88
2023/05/23 06:36:03;;;;;;;;;;;13.00;77.00;;;;;;4139854;28;19917;-89
2023/05/23 06:38:25;;;;;;;;;;;13.10;77.20;;;;;;4140482;28;20315;-88
2023/05/23 06:40:46;;;;;;;;;;;13.10;77.60;;;;;;4139303;28;20395;-86
2023/05/23 06:43:07;;;;;;;;;;;13.10;77.80;;;;;;4138323;28;20338;-86
2023/05/23 06:45:28;;;;;;;;;;;13.20;77.30;;;;;;4138789;28;19917;-87
2023/05/23 06:47:49;;;;;;;;;;;13.20;77.60;;;;;;4138167;28;19910;-86
2023/05/23 06:50:10;;;;;;;;;;;13.10;78.30;;;;;;4140651;28;20004;-88
2023/05/23 06:52:31;;;;;;;;;;;13.20;78.00;;;;;;4138660;28;19925;-88
2023/05/23 06:54:52;;;;;;;;;;;13.10;77.70;;;;;;4138725;28;19910;-90
2023/05/23 06:57:12;;;;;;;;;;;13.20;78.40;;;;;;4138091;28;19922;-85
2023/05/23 06:59:33;;;;;;;;;;;13.20;77.60;;;;;;4142532;28;19917;-86
2023/05/23 07:01:54;;;;;;;;;;;13.10;77.60;;;;;;4138842;28;20095;-89
2023/05/23 07:04:15;;;;;;;;;;;13.10;77.30;;;;;;4138387;28;19929;-86
2023/05/23 07:06:36;;;;;;;;;;;13.10;77.00;;;;;;4141300;28;19985;-87
2023/05/23 07:08:57;;;;;;;;;;;12.90;76.80;;;;;;4137451;28;19947;-89
2023/05/23 07:11:19;;;;;;;;;;;12.90;76.70;;;;;;4140167;28;19936;-86
2023/05/23 07:13:40;;;;;;;;;;;12.80;76.60;;;;;;4133844;28;19914;-87
2023/05/23 07:16:01;;;;;;;;;;;12.80;76.70;;;;;;4137201;28;20000;-86
2023/05/23 07:18:22;;;;;;;;;;;12.60;76.50;;;;;;4140175;28;19953;-85
2023/05/23 07:20:43;;;;;;;;;;;12.60;76.40;;;;;;4138193;28;20008;-85
2023/05/23 07:23:04;;;;;;;;;;;12.40;76.20;;;;;;4141941;28;19917;-88
2023/05/23 07:25:25;;;;;;;;;;;12.40;76.30;;;;;;4140920;28;19964;-87
2023/05/23 07:27:46;;;;;;;;;;;12.30;76.40;;;;;;4144117;28;20044;-87
2023/05/23 07:30:08;;;;;;;;;;;12.20;76.60;;;;;;4153118;28;20739;-86
2023/05/23 07:32:29;;;;;;;;;;;12.10;76.40;;;;;;4136471;28;19918;-87
2023/05/23 07:34:50;;;;;;;;;;;12.20;76.80;;;;;;4138563;28;20160;-85
2023/05/23 07:37:11;;;;;;;;;;;12.10;76.80;;;;;;4137767;28;20409;-87
2023/05/23 07:39:32;;;;;;;;;;;12.00;77.10;;;;;;4142004;28;19948;-89
2023/05/23 07:41:53;;;;;;;;;;;12.00;77.10;;;;;;4135831;28;20065;-88
2023/05/23 07:44:14;;;;;;;;;;;11.80;77.20;;;;;;4139200;28;19918;-87
2023/05/23 07:46:35;;;;;;;;;;;11.80;77.20;;;;;;4140677;28;19948;-87
2023/05/23 07:48:56;;;;;;;;;;;11.70;77.50;;;;;;4143594;28;19921;-87
2023/05/23 07:51:20;;;;;;;;;;;11.80;77.60;;;;;;4138151;28;19925;-85
2023/05/23 07:53:40;;;;;;;;;;;11.60;77.50;;;;;;4138595;28;20004;-88
2023/05/23 07:56:01;;;;;;;;;;;11.60;77.70;;;;;;4137245;28;20273;-87
2023/05/23 07:58:22;;;;;;;;;;;11.60;77.90;;;;;;4137631;28;19918;-89
2023/05/23 08:00:44;;;;;;;;;;;11.60;77.80;;;;;;4139366;28;19924;-87
2023/05/23 08:03:05;;;;;;;;;;;11.50;77.80;;;;;;4140933;28;19917;-85
2023/05/23 08:05:26;;;;;;;;;;;11.60;78.00;;;;;;4136666;28;19952;-86
2023/05/23 08:07:46;;;;;;;;;;;11.40;77.90;;;;;;4142635;28;19921;-86
2023/05/23 08:10:07;;;;;;;;;;;11.50;78.20;;;;;;4137679;28;20019;-88
2023/05/23 08:12:28;;;;;;;;;;;11.40;78.20;;;;;;4144871;28;19925;-88
2023/05/23 08:14:49;;;;;;;;;;;11.40;78.10;;;;;;4142538;28;19917;-87
2023/05/23 08:17:11;;;;;;;;;;;11.40;78.20;;;;;;4139515;28;19987;-87
2023/05/23 08:19:32;;;;;;;;;;;11.40;78.00;;;;;;4142470;28;19925;-89
2023/05/23 08:21:53;;;;;;;;;;;11.40;78.10;;;;;;4136320;28;20403;-88
2023/05/23 08:24:14;;;;;;;;;;;11.40;78.10;;;;;;4136411;28;20407;-89
2023/05/23 08:26:36;;;;;;;;;;;11.40;78.10;;;;;;4138183;28;20347;-88
2023/05/23 08:28:57;;;;;;;;;;;11.40;78.30;;;;;;4140956;28;19921;-87
2023/05/23 08:31:17;;;;;;;;;;;11.40;78.20;;;;;;4142182;28;19918;-87
2023/05/23 08:33:38;;;;;;;;;;;11.30;77.80;;;;;;4144216;28;19924;-91
2023/05/23 08:35:59;;;;;;;;;;;11.40;77.80;;;;;;4142922;28;19917;-88
2023/05/23 08:38:20;;;;;;;;;;;11.30;77.60;;;;;;4138773;28;20346;-86
2023/05/23 08:40:44;;;;;;;;;;;11.40;77.60;;;;;;4139203;28;19917;-88
2023/05/23 08:43:05;;;;;;;;;;;11.30;77.50;;;;;;4139805;28;19948;-85
2023/05/23 08:45:28;;;;;;;;;;;11.40;77.20;;;;;;4142210;28;20383;-88
2023/05/23 08:47:50;;;;;;;;;;;11.30;77.50;;;;;;4138434;28;19917;-88
2023/05/23 08:50:11;;;;;;;;;;;11.40;77.40;;;;;;4143573;28;19956;-89
2023/05/23 08:52:32;;;;;;;;;;;11.30;77.30;;;;;;4144817;28;19917;-86
2023/05/23 08:54:54;;;;;;;;;;;11.30;77.30;;;;;;4140522;28;19913;-89
2023/05/23 08:57:15;;;;;;;;;;;11.30;77.30;;;;;;4138096;28;19924;-86
2023/05/23 08:59:37;;;;;;;;;;;11.40;77.40;;;;;;4135597;28;19922;-87
2023/05/23 09:01:59;;;;;;;;;;;11.50;77.70;;;;;;4139107;28;19922;-85
2023/05/23 09:04:20;;;;;;;;;;;11.50;77.40;;;;;;4144096;28;20150;-89
2023/05/23 09:06:41;;;;;;;;;;;11.50;77.30;;;;;;4133754;28;20308;-87
2023/05/23 09:09:03;;;;;;;;;;;11.60;77.50;;;;;;4134032;28;19929;-86
2023/05/23 09:11:24;;;;;;;;;;;11.60;77.30;;;;;;4150850;28;19917;-87
2023/05/23 09:13:44;;;;;;;;;;;11.70;76.90;;;;;;4138201;28;19913;-88
2023/05/23 09:16:06;;;;;;;;;;;11.70;76.30;;;;;;4134405;28;19968;-87
2023/05/23 09:18:37;;;;;;;;;;;11.70;75.60;;;;;;4137882;28;19973;-88
2023/05/23 09:20:58;;;;;;;;;;;11.70;75.20;;;;;;4136479;28;19922;-88
2023/05/23 09:23:19;;;;;;;;;;;11.70;75.20;;;;;;4138595;28;19917;-87
2023/05/23 09:25:47;;;;;;;;;;;11.60;74.20;;;;;;4140492;28;19918;-88
2023/05/23 09:28:08;;;;;;;;;;;11.70;74.10;;;;;;4137690;28;20359;-86
2023/05/23 09:30:32;;;;;;;;;;;11.80;73.70;;;;;;4136972;28;19922;-85
2023/05/23 09:32:59;;;;;;;;;;;11.60;73.30;;;;;;4135153;28;19921;-88
2023/05/23 09:35:21;;;;;;;;;;;11.60;73.40;;;;;;4138546;28;20450;-87
2023/05/23 09:37:44;;;;;;;;;;;11.60;73.40;;;;;;4141743;28;20040;-86
2023/05/23 09:40:06;;;;;;;;;;;11.50;73.10;;;;;;4136125;28;20015;-85
2023/05/23 09:42:30;;;;;;;;;;;11.60;73.10;;;;;;4138717;28;19923;-88
2023/05/23 09:44:52;;;;;;;;;;;11.60;73.30;;;;;;4138954;28;19925;-86
2023/05/23 09:47:14;;;;;;;;;;;11.70;73.10;;;;;;4132537;28;19917;-87
2023/05/23 09:49:37;;;;;;;;;;;11.70;73.20;;;;;;4138741;28;20308;-86
2023/05/23 09:51:59;;;;;;;;;;;11.80;73.10;;;;;;4141519;28;20248;-87
2023/05/23 09:54:19;;;;;;;;;;;11.70;72.80;;;;;;4136829;28;19936;-86
2023/05/23 09:56:42;;;;;;;;;;;11.70;71.80;;;;;;4132948;28;19979;-86
2023/05/23 09:59:05;;;;;;;;;;;11.70;72.10;;;;;;4136703;28;19913;-88
2023/05/23 10:01:26;;;;;;;;;;;11.70;71.70;;;;;;4129154;28;19921;-86
2023/05/23 10:03:54;;;;;;;;;;;11.80;71.20;;;;;;4138920;28;19928;-87
2023/05/23 10:06:33;;;;;;;;;;;11.70;70.50;;;;;;4139010;28;19963;-86
2023/05/23 10:09:02;;;;;;;;;;;11.70;70.70;;;;;;4134444;28;19973;-87
2023/05/23 10:11:35;;;;;;;;;;;11.80;70.70;;;;;;4140631;28;19917;-89
2023/05/23 10:13:57;;;;;;;;;;;11.90;71.00;;;;;;4147222;28;19952;-87
2023/05/23 10:16:22;;;;;;;;;;;11.90;70.40;;;;;;4151935;28;19999;-86
2023/05/23 10:18:43;;;;;;;;;;;11.90;70.00;;;;;;4145404;28;19983;-86
2023/05/23 10:21:08;;;;;;;;;;;12.00;70.00;;;;;;4144843;28;20243;-86
2023/05/23 10:23:30;;;;;;;;;;;12.00;69.50;;;;;;4145107;28;19960;-87
2023/05/23 10:25:51;;;;;;;;;;;12.10;69.10;;;;;;4144334;28;19965;-86
2023/05/23 10:28:12;;;;;;;;;;;12.20;68.40;;;;;;4146626;28;19917;-86
2023/05/23 10:30:33;;;;;;;;;;;12.10;68.00;;;;;;4146897;28;19925;-86
2023/05/23 10:32:55;;;;;;;;;;;12.20;67.10;;;;;;4149236;28;20040;-87
2023/05/23 10:35:35;;;;;;;;;;;12.10;66.60;;;;;;4146819;28;20415;-87
2023/05/23 10:38:14;;;;;;;;;;;12.10;66.30;;;;;;4147158;28;19924;-88
2023/05/23 10:40:38;;;;;;;;;;;12.20;66.70;;;;;;4147590;28;19927;-87
2023/05/23 10:43:18;;;;;;;;;;;12.20;66.90;;;;;;4145817;28;19914;-86
2023/05/23 10:45:42;;;;;;;;;;;12.20;66.40;;;;;;4147505;28;19936;-86
2023/05/23 10:48:15;;;;;;;;;;;12.30;66.40;;;;;;4145381;28;19928;-88
2023/05/23 10:50:37;;;;;;;;;;;12.40;66.00;;;;;;4147593;28;19926;-87
2023/05/23 10:52:58;;;;;;;;;;;12.40;65.30;;;;;;4146136;28;19913;-87
2023/05/23 10:55:19;;;;;;;;;;;12.50;65.20;;;;;;4147841;28;19968;-91
2023/05/23 10:57:42;;;;;;;;;;;12.50;64.80;;;;;;4153406;28;19946;-89
2023/05/23 11:00:04;;;;;;;;;;;12.60;65.30;;;;;;4155355;28;19949;-88
2023/05/23 11:02:25;;;;;;;;;;;12.70;64.60;;;;;;4147775;28;20386;-88
2023/05/23 11:05:06;;;;;;;;;;;12.80;64.70;;;;;;4146685;28;19957;-88
2023/05/23 11:07:28;;;;;;;;;;;13.00;64.60;;;;;;4148166;28;19928;-87
2023/05/23 11:10:09;;;;;;;;;;;12.90;63.10;;;;;;4147127;28;19921;-86
2023/05/23 11:12:38;;;;;;;;;;;13.00;63.30;;;;;;4142353;28;19917;-86
2023/05/23 11:14:59;;;;;;;;;;;13.00;62.50;;;;;;4139524;28;19924;-85
2023/05/23 11:17:30;;;;;;;;;;;13.20;62.00;;;;;;4138541;28;19921;-86
2023/05/23 11:19:57;;;;;;;;;;;13.20;62.30;;;;;;4142387;28;20045;-85
2023/05/23 11:22:18;;;;;;;;;;;13.20;61.10;;;;;;4141265;28;19917;-87
2023/05/23 11:24:50;;;;;;;;;;;13.40;61.50;;;;;;4141082;28;20038;-85
2023/05/23 11:27:11;;;;;;;;;;;13.30;61.10;;;;;;4137616;28;20015;-87
2023/05/23 11:29:32;;;;;;;;;;;13.40;60.40;;;;;;4140627;28;19952;-86
2023/05/23 11:31:53;;;;;;;;;;;13.40;60.00;;;;;;4136206;28;19917;-87
2023/05/23 11:34:14;;;;;;;;;;;13.40;60.20;;;;;;4138614;28;19913;-87
2023/05/23 11:36:35;;;;;;;;;;;13.50;59.90;;;;;;4140046;28;19924;-86
2023/05/23 11:39:00;;;;;;;;;;;13.50;60.10;;;;;;4137663;28;19917;-89
2023/05/23 11:41:21;;;;;;;;;;;13.50;59.20;;;;;;4139953;28;20411;-87
2023/05/23 11:43:49;;;;;;;;;;;13.50;59.00;;;;;;4151702;28;19925;-88
2023/05/23 11:46:10;;;;;;;;;;;13.50;58.20;;;;;;4159895;28;19917;-88
2023/05/23 11:48:30;;;;;;;;;;;13.50;59.10;;;;;;4159083;28;19912;-86
2023/05/23 11:50:52;;;;;;;;;;;13.50;58.60;;;;;;4157098;28;19985;-91
2023/05/23 11:53:16;;;;;;;;;;;13.60;58.60;;;;;;4161406;28;19941;-89
2023/05/23 11:55:39;;;;;;;;;;;13.50;58.60;;;;;;4159362;28;19926;-90
2023/05/23 11:58:00;;;;;;;;;;;13.60;58.80;;;;;;4144736;28;20261;-87
2023/05/23 12:00:20;;;;;;;;;;;13.80;58.60;;;;;;4144117;28;19920;-89
2023/05/23 12:02:42;;;;;;;;;;;13.70;59.10;;;;;;4147123;28;19920;-87
2023/05/23 12:05:06;;;;;;;;;;;13.70;58.40;;;;;;4151006;28;20022;-87
2023/05/23 12:07:26;;;;;;;;;;;13.60;57.90;;;;;;4154073;28;19925;-87
2023/05/23 12:09:47;;;;;;;;;;;13.60;57.90;;;;;;4140887;28;20463;-87
2023/05/23 12:12:08;;;;;;;;;;;13.80;58.30;;;;;;4139021;28;19963;-87
2023/05/23 12:14:29;;;;;;;;;;;13.70;58.10;;;;;;4137349;28;19914;-88
2023/05/23 12:16:51;;;;;;;;;;;13.80;58.40;;;;;;4141820;28;19913;-89
2023/05/23 12:19:12;;;;;;;;;;;13.80;58.50;;;;;;4145546;28;20059;-89
2023/05/23 12:21:59;;;;;;;;;;;13.90;58.20;;;;;;4141198;28;20145;-87
2023/05/23 12:24:21;;;;;;;;;;;13.90;57.80;;;;;;4145818;28;19924;-86
2023/05/23 12:26:46;;;;;;;;;;;13.90;58.00;;;;;;4148305;28;19944;-87
2023/05/23 12:29:07;;;;;;;;;;;14.00;57.80;;;;;;4144172;28;19932;-89
2023/05/23 12:31:28;;;;;;;;;;;13.90;56.50;;;;;;4144568;28;19925;-88
2023/05/23 12:33:51;;;;;;;;;;;13.90;56.50;;;;;;4148853;28;19918;-85
2023/05/23 12:36:20;;;;;;;;;;;13.90;56.40;;;;;;4151145;28;19933;-86
2023/05/23 12:38:44;;;;;;;;;;;14.00;56.60;;;;;;4148266;28;19913;-88
2023/05/23 12:41:23;;;;;;;;;;;13.90;56.00;;;;;;4147805;28;19914;-86
2023/05/23 12:43:50;;;;;;;;;;;13.90;56.00;;;;;;4147299;28;19917;-86
2023/05/23 12:46:11;;;;;;;;;;;13.90;56.50;;;;;;4146646;28;19952;-86
2023/05/23 12:48:32;;;;;;;;;;;13.80;56.30;;;;;;4150641;28;19957;-87
2023/05/23 12:50:53;;;;;;;;;;;13.80;56.30;;;;;;4152214;28;19921;-85
2023/05/23 12:53:14;;;;;;;;;;;13.90;55.90;;;;;;4147953;28;19917;-88
2023/05/23 12:55:35;;;;;;;;;;;13.80;56.10;;;;;;4139766;28;19941;-86
2023/05/23 12:57:56;;;;;;;;;;;13.80;56.60;;;;;;4145088;28;19922;-87
2023/05/23 13:00:18;;;;;;;;;;;13.70;55.60;;;;;;4142334;28;19967;-87
2023/05/23 13:02:39;;;;;;;;;;;13.70;55.80;;;;;;4139377;28;19960;-86
2023/05/23 13:05:00;;;;;;;;;;;13.70;55.10;;;;;;4144910;28;19924;-84
2023/05/23 13:07:21;;;;;;;;;;;13.60;55.40;;;;;;4143608;28;19921;-86
2023/05/23 13:09:42;;;;;;;;;;;13.50;55.00;;;;;;4145405;28;19963;-86
2023/05/23 13:12:03;;;;;;;;;;;13.60;55.60;;;;;;4144311;28;19910;-88
2023/05/23 13:14:24;;;;;;;;;;;13.50;55.20;;;;;;4146125;28;19917;-88
2023/05/23 13:16:45;;;;;;;;;;;13.40;55.00;;;;;;4148806;28;19914;-88
2023/05/23 13:19:06;;;;;;;;;;;13.40;55.30;;;;;;4146105;28;19952;-87
2023/05/23 13:21:27;;;;;;;;;;;13.40;55.40;;;;;;4139428;28;19932;-89
2023/05/23 13:23:48;;;;;;;;;;;13.50;55.10;;;;;;4158281;28;19980;-87
2023/05/23 13:26:09;;;;;;;;;;;13.40;55.00;;;;;;4145783;28;19953;-87
2023/05/23 13:28:30;;;;;;;;;;;13.40;56.10;;;;;;4142501;28;19936;-86
2023/05/23 13:30:51;;;;;;;;;;;13.40;56.60;;;;;;4146308;28;19918;-87
2023/05/23 13:33:12;;;;;;;;;;;13.40;56.40;;;;;;4140652;28;19913;-87
2023/05/23 13:35:33;;;;;;;;;;;13.50;56.10;;;;;;4148421;28;20374;-85
2023/05/23 13:37:54;;;;;;;;;;;13.40;56.10;;;;;;4145991;28;19917;-87
2023/05/23 13:40:17;;;;;;;;;;;13.40;55.90;;;;;;4146287;28;19920;-86
2023/05/23 13:42:38;;;;;;;;;;;13.30;55.70;;;;;;4145481;28;19914;-86
2023/05/23 13:44:59;;;;;;;;;;;13.40;56.10;;;;;;4146632;28;19917;-85
2023/05/23 13:47:20;;;;;;;;;;;13.20;56.20;;;;;;4144523;28;20004;-86